createdAt,value
2023-01-08T00:02:45.869Z,59.42
2023-01-08T00:05:33.048Z,68.30
2023-01-08T00:08:20.419Z,64.65
2023-01-08T00:11:09.293Z,68.63
2023-01-08T00:13:57.284Z,77.40
2023-01-08T00:16:44.699Z,67.80
2023-01-08T00:19:31.904Z,77.28
2023-01-08T00:22:19.212Z,74.65
2023-01-08T00:25:07.366Z,74.72
2023-01-08T00:27:56.230Z,71.05
2023-01-08T00:30:43.884Z,66.25
2023-01-08T00:33:31.588Z,74.45
2023-01-08T00:36:20.631Z,72.00
2023-01-08T00:39:07.841Z,79.15
2023-01-08T00:41:54.913Z,67.88
2023-01-08T00:44:43.583Z,85.07
2023-01-08T00:47:31.346Z,77.68
2023-01-08T00:50:19.140Z,77.20
2023-01-08T00:53:06.280Z,78.32
2023-01-08T00:56:01.083Z,78.57
2023-01-08T00:58:48.418Z,80.32
2023-01-08T01:01:37.232Z,71.97
2023-01-08T01:04:26.278Z,75.80
2023-01-08T01:07:13.800Z,78.20
2023-01-08T01:10:01.049Z,72.47
2023-01-08T01:12:48.561Z,76.80
2023-01-08T01:15:35.625Z,72.50
2023-01-08T01:18:24.078Z,69.45
2023-01-08T01:21:12.653Z,79.93
2023-01-08T01:24:01.724Z,61.60
2023-01-08T01:26:48.879Z,69.63
2023-01-08T01:29:36.375Z,63.75
2023-01-08T01:32:23.701Z,64.28
2023-01-08T01:35:12.685Z,65.55
2023-01-08T01:37:59.703Z,73.28
2023-01-08T01:40:46.795Z,65.60
2023-01-08T01:43:39.549Z,54.13
2023-01-08T01:46:37.888Z,53.85
2023-01-08T01:49:25.476Z,58.35
2023-01-08T01:52:14.104Z,77.60
2023-01-08T01:55:03.742Z,64.88
2023-01-08T01:58:04.027Z,61.17
2023-01-08T02:00:52.463Z,59.28
2023-01-08T02:03:41.282Z,61.33
2023-01-08T02:06:38.282Z,63.45
2023-01-08T02:09:41.954Z,49.45
2023-01-08T02:12:33.606Z,57.92
2023-01-08T02:15:25.252Z,60.95
2023-01-08T02:18:18.271Z,49.20
2023-01-08T02:21:11.307Z,50.95
2023-01-08T02:24:04.634Z,56.38
2023-01-08T02:26:56.050Z,58.13
2023-01-08T02:29:43.325Z,55.47
2023-01-08T02:32:35.462Z,54.45
2023-01-08T02:35:23.159Z,53.70
2023-01-08T02:38:13.962Z,43.85
2023-01-08T02:41:05.756Z,53.50
2023-01-08T02:43:56.806Z,44.03
2023-01-08T02:46:45.114Z,44.65
2023-01-08T02:49:36.304Z,59.50
2023-01-08T02:52:27.118Z,47.35
2023-01-08T02:55:14.983Z,55.97
2023-01-08T02:58:04.065Z,59.85
2023-01-08T03:00:54.508Z,60.63
2023-01-08T03:03:44.765Z,62.22
2023-01-08T03:06:32.840Z,53.00
2023-01-08T03:09:20.685Z,58.38
2023-01-08T03:12:17.867Z,60.67
2023-01-08T03:15:09.466Z,58.95
2023-01-08T03:18:02.941Z,67.45
2023-01-08T03:20:52.030Z,53.55
2023-01-08T03:23:41.132Z,58.38
2023-01-08T03:26:30.246Z,62.25
2023-01-08T03:29:21.569Z,52.47
2023-01-08T03:32:14.978Z,62.72
2023-01-08T03:35:05.127Z,57.00
2023-01-08T03:37:57.763Z,65.95
2023-01-08T03:40:48.684Z,61.95
2023-01-08T03:43:35.963Z,64.72
2023-01-08T03:46:28.928Z,54.40
2023-01-08T03:49:17.300Z,58.08
2023-01-08T03:52:05.859Z,58.15
2023-01-08T03:54:53.154Z,60.47
2023-01-08T03:57:40.378Z,51.65
2023-01-08T04:00:28.047Z,52.72
2023-01-08T04:03:15.421Z,53.20
2023-01-08T04:06:03.119Z,65.35
2023-01-08T04:08:51.991Z,58.13
2023-01-08T04:11:39.458Z,55.78
2023-01-08T04:14:26.747Z,63.47
2023-01-08T04:17:15.290Z,68.75
2023-01-08T04:20:02.890Z,67.90
2023-01-08T04:22:49.961Z,81.10
2023-01-08T04:25:40.020Z,64.13
2023-01-08T04:28:28.754Z,85.53
2023-01-08T04:31:16.347Z,83.40
2023-01-08T04:34:04.141Z,82.13
2023-01-08T04:36:51.114Z,80.07
2023-01-08T04:39:38.306Z,96.88
2023-01-08T04:42:27.098Z,82.15
2023-01-08T04:45:14.465Z,72.55
2023-01-08T04:48:01.813Z,88.80
2023-01-08T04:50:48.793Z,82.07
2023-01-08T04:53:39.289Z,85.53
2023-01-08T04:56:26.619Z,93.20
2023-01-08T04:59:15.065Z,93.45
2023-01-08T05:02:02.334Z,85.85
2023-01-08T05:04:49.957Z,87.05
2023-01-08T05:07:37.192Z,91.22
2023-01-08T05:10:24.289Z,105.72
2023-01-08T05:13:11.525Z,104.03
2023-01-08T05:16:01.985Z,94.70
2023-01-08T05:18:49.788Z,108.60
2023-01-08T05:21:37.338Z,103.32
2023-01-08T05:24:24.608Z,95.82
2023-01-08T05:27:11.739Z,100.18
2023-01-08T05:29:58.904Z,109.30
2023-01-08T05:32:47.519Z,102.35
2023-01-08T05:35:34.984Z,97.60
2023-01-08T05:38:22.238Z,97.95
2023-01-08T05:41:10.707Z,91.72
2023-01-08T05:43:57.994Z,90.28
2023-01-08T05:46:45.340Z,86.47
2023-01-08T05:49:33.973Z,90.20
2023-01-08T05:52:21.343Z,84.07
2023-01-08T05:55:09.553Z,89.70
2023-01-08T05:57:57.148Z,90.25
2023-01-08T06:00:44.307Z,79.35
2023-01-08T06:03:31.517Z,80.97
2023-01-08T06:06:20.179Z,93.90
2023-01-08T06:09:08.043Z,93.57
2023-01-08T06:11:57.985Z,83.07
2023-01-08T06:14:45.289Z,81.05
2023-01-08T06:17:32.769Z,75.53
2023-01-08T06:20:19.945Z,77.68
2023-01-08T06:23:09.581Z,74.18
2023-01-08T06:25:58.345Z,77.32
2023-01-08T06:28:45.820Z,64.75
2023-01-08T06:31:33.380Z,67.72
2023-01-08T06:34:20.737Z,80.78
2023-01-08T06:37:08.066Z,75.78
2023-01-08T06:39:56.838Z,89.15
2023-01-08T06:42:44.579Z,90.35
2023-01-08T06:45:32.159Z,77.90
2023-01-08T06:48:19.552Z,82.47
2023-01-08T06:51:07.087Z,89.15
2023-01-08T06:53:54.572Z,88.13
2023-01-08T06:56:53.268Z,82.75
2023-01-08T06:59:41.402Z,86.20
2023-01-08T07:02:28.716Z,95.95
2023-01-08T07:05:16.319Z,93.07
2023-01-08T07:08:03.730Z,90.22
2023-01-08T07:10:51.026Z,90.05
2023-01-08T07:13:39.688Z,98.30
2023-01-08T07:16:26.995Z,93.50
2023-01-08T07:19:14.666Z,93.13
2023-01-08T07:22:02.364Z,87.53
2023-01-08T07:24:49.614Z,80.25
2023-01-08T07:27:36.753Z,71.82
2023-01-08T07:30:30.135Z,61.03
2023-01-08T07:33:17.711Z,69.15
2023-01-08T07:36:05.677Z,66.97
2023-01-08T07:38:53.469Z,78.53
2023-01-08T07:41:40.867Z,75.30
2023-01-08T07:44:28.249Z,73.32
2023-01-08T07:47:17.076Z,65.68
2023-01-08T07:50:04.809Z,61.80
2023-01-08T07:52:52.345Z,68.75
2023-01-08T07:55:39.981Z,69.25
2023-01-08T07:58:27.146Z,73.93
2023-01-08T08:01:16.548Z,75.25
2023-01-08T08:04:05.478Z,82.65
2023-01-08T08:06:53.080Z,94.63
2023-01-08T08:09:40.538Z,95.82
2023-01-08T08:12:27.888Z,97.78
2023-01-08T08:15:15.550Z,92.22
2023-01-08T08:18:03.030Z,92.68
2023-01-08T08:20:52.129Z,87.22
2023-01-08T08:23:39.760Z,83.07
2023-01-08T08:26:27.233Z,92.35
2023-01-08T08:29:14.843Z,92.38
2023-01-08T08:32:01.933Z,95.47
2023-01-08T08:34:50.664Z,108.57
2023-01-08T08:37:39.288Z,89.22
2023-01-08T08:40:27.759Z,90.80
2023-01-08T08:43:14.879Z,84.80
2023-01-08T08:46:02.074Z,87.95
2023-01-08T08:48:49.563Z,101.50
2023-01-08T08:51:37.144Z,99.07
2023-01-08T08:54:25.947Z,84.55
2023-01-08T08:57:13.336Z,89.75
2023-01-08T09:00:01.529Z,112.90
2023-01-08T09:02:51.835Z,104.53
2023-01-08T09:05:39.001Z,104.38
2023-01-08T09:08:26.380Z,110.90
2023-01-08T09:11:14.806Z,112.80
2023-01-08T09:14:02.161Z,102.43
2023-01-08T09:16:49.611Z,104.47
2023-01-08T09:19:36.764Z,96.05
2023-01-08T09:22:24.115Z,94.30
2023-01-08T09:25:11.712Z,90.25
2023-01-08T09:28:04.750Z,89.40
2023-01-08T09:30:52.195Z,91.05
2023-01-08T09:33:39.559Z,74.53
2023-01-08T09:36:26.745Z,69.82
2023-01-08T09:39:14.499Z,75.43
2023-01-08T09:42:04.449Z,74.78
2023-01-08T09:44:56.530Z,76.80
2023-01-08T09:47:45.147Z,71.72
2023-01-08T09:50:33.129Z,71.15
2023-01-08T09:53:20.936Z,73.82
2023-01-08T09:56:14.363Z,74.97
2023-01-08T09:59:04.366Z,69.97
2023-01-08T10:01:54.205Z,70.45
2023-01-08T10:04:41.832Z,71.15
2023-01-08T10:07:31.343Z,57.80
2023-01-08T10:10:22.221Z,57.67
2023-01-08T10:13:12.592Z,49.05
2023-01-08T10:16:00.976Z,49.13
2023-01-08T10:18:49.716Z,49.42
2023-01-08T10:21:40.015Z,52.47
2023-01-08T10:24:35.407Z,41.22
2023-01-08T10:27:24.533Z,43.83
2023-01-08T10:30:17.485Z,39.05
2023-01-08T10:33:07.330Z,45.92
2023-01-08T10:35:59.775Z,38.47
2023-01-08T10:38:53.738Z,38.10
2023-01-08T10:41:40.985Z,37.28
2023-01-08T10:44:28.524Z,35.10
2023-01-08T10:47:19.096Z,30.63
2023-01-08T10:50:17.149Z,30.23
2023-01-08T10:53:07.427Z,34.25
2023-01-08T10:56:02.233Z,31.55
2023-01-08T10:58:50.133Z,32.35
2023-01-08T11:01:37.517Z,29.27
2023-01-08T11:04:32.410Z,29.08
2023-01-08T11:07:22.854Z,25.80
2023-01-08T11:10:25.058Z,24.30
2023-01-08T11:13:18.968Z,30.48
2023-01-08T11:16:10.514Z,27.70
2023-01-08T11:18:58.295Z,27.33
2023-01-08T11:21:56.932Z,20.40
2023-01-08T11:24:45.705Z,26.02
2023-01-08T11:27:38.028Z,25.77
2023-01-08T11:30:27.879Z,27.65
2023-01-08T11:33:20.194Z,26.70
2023-01-08T11:36:15.002Z,23.55
2023-01-08T11:39:03.108Z,24.90
2023-01-08T11:42:15.649Z,20.40
2023-01-08T11:45:25.853Z,23.00
2023-01-08T11:48:31.352Z,20.55
2023-01-08T11:51:40.420Z,22.05
2023-01-08T11:54:41.450Z,20.80
2023-01-08T11:57:42.328Z,24.60
2023-01-08T12:00:46.354Z,21.75
2023-01-08T12:03:37.789Z,20.00
2023-01-08T12:06:35.667Z,17.48
2023-01-08T12:09:36.822Z,19.17
2023-01-08T12:12:39.741Z,19.60
2023-01-08T12:15:36.934Z,17.58
2023-01-08T12:18:55.969Z,16.55
2023-01-08T12:21:56.179Z,17.08
2023-01-08T12:25:09.172Z,19.05
2023-01-08T12:28:05.982Z,17.25
2023-01-08T12:31:12.898Z,13.05
2023-01-08T12:36:58.036Z,13.93
2023-01-08T12:39:51.261Z,17.13
2023-01-08T12:42:47.296Z,14.27
2023-01-08T12:45:43.120Z,13.57
2023-01-08T12:48:34.920Z,15.48
2023-01-08T12:51:32.721Z,15.23
2023-01-08T12:54:28.106Z,15.02
2023-01-08T12:57:22.654Z,16.33
2023-01-08T13:00:19.545Z,14.90
2023-01-08T13:03:15.027Z,15.18
2023-01-08T13:06:11.632Z,18.13
2023-01-08T13:09:02.032Z,18.40
2023-01-08T13:11:53.995Z,16.17
2023-01-08T13:14:43.311Z,15.30
2023-01-08T13:17:31.068Z,16.75
2023-01-08T13:20:23.173Z,18.48
2023-01-08T13:23:25.500Z,17.48
2023-01-08T13:26:33.102Z,19.23
2023-01-08T13:29:41.287Z,19.27
2023-01-08T13:32:42.110Z,19.20
2023-01-08T13:35:31.620Z,19.55
2023-01-08T13:38:20.489Z,18.90
2023-01-08T13:41:25.179Z,16.50
2023-01-08T13:44:23.582Z,18.33
2023-01-08T13:47:20.880Z,16.95
2023-01-08T13:50:20.673Z,20.00
2023-01-08T13:53:13.330Z,19.92
2023-01-08T13:56:03.289Z,22.90
2023-01-08T13:58:55.399Z,18.88
2023-01-08T14:01:53.535Z,21.50
2023-01-08T14:04:49.153Z,22.77
2023-01-08T14:07:40.762Z,22.50
2023-01-08T14:10:30.397Z,18.00
2023-01-08T14:13:19.218Z,19.27
2023-01-08T14:16:14.856Z,17.75
2023-01-08T14:19:05.801Z,18.23
2023-01-08T14:21:56.036Z,18.63
2023-01-08T14:24:45.566Z,21.05
2023-01-08T14:27:34.188Z,20.27
2023-01-08T14:30:22.002Z,23.52
2023-01-08T14:33:14.259Z,24.90
2023-01-08T14:36:02.710Z,26.10
2023-01-08T14:38:52.314Z,31.50
2023-01-08T14:42:00.535Z,27.85
2023-01-08T14:44:55.557Z,26.92
2023-01-08T14:47:45.989Z,25.25
2023-01-08T14:50:37.137Z,25.10
2023-01-08T14:53:29.521Z,23.33
2023-01-08T14:56:20.941Z,27.90
2023-01-08T14:59:10.101Z,20.23
2023-01-08T15:02:01.005Z,21.50
2023-01-08T15:04:48.175Z,26.73
2023-01-08T15:07:36.831Z,25.65
2023-01-08T15:10:36.009Z,23.95
2023-01-08T15:13:24.726Z,31.55
2023-01-08T15:16:17.915Z,30.02
2023-01-08T15:19:07.972Z,28.77
2023-01-08T15:21:58.313Z,25.90
2023-01-08T15:24:58.166Z,29.33
2023-01-08T15:27:53.659Z,27.98
2023-01-08T15:30:46.559Z,27.80
2023-01-08T15:33:33.694Z,28.80
2023-01-08T15:36:21.463Z,28.92
2023-01-08T15:39:08.739Z,36.10
2023-01-08T15:42:15.438Z,36.47
2023-01-08T15:45:02.561Z,52.63
2023-01-08T15:47:49.951Z,58.20
2023-01-08T15:50:40.174Z,61.47
2023-01-08T15:53:27.770Z,57.03
2023-01-08T15:56:15.956Z,52.28
2023-01-08T15:59:04.769Z,42.85
2023-01-08T16:01:52.229Z,35.70
2023-01-08T16:04:39.729Z,42.13
2023-01-08T16:07:27.029Z,42.28
2023-01-08T16:10:15.355Z,43.05
2023-01-08T16:13:03.436Z,34.50
2023-01-08T16:15:51.866Z,45.33
2023-01-08T16:18:39.380Z,38.97
2023-01-08T16:21:26.799Z,34.55
2023-01-08T16:24:14.652Z,37.47
2023-01-08T16:27:02.254Z,31.52
2023-01-08T16:29:49.614Z,36.20
2023-01-08T16:32:38.254Z,33.67
2023-01-08T16:35:25.690Z,35.03
2023-01-08T16:38:14.132Z,42.80
2023-01-08T16:41:01.697Z,35.30
2023-01-08T16:43:49.138Z,42.47
2023-01-08T16:46:36.709Z,35.25
2023-01-08T16:49:25.928Z,34.58
2023-01-08T16:52:13.375Z,35.20
2023-01-08T16:55:00.862Z,36.58
2023-01-08T16:57:48.579Z,38.65
2023-01-08T17:00:36.829Z,36.08
2023-01-08T17:03:24.277Z,33.30
2023-01-08T17:06:15.319Z,38.40
2023-01-08T17:09:02.524Z,38.13
2023-01-08T17:11:49.756Z,35.25
2023-01-08T17:14:37.490Z,39.47
2023-01-08T17:17:24.513Z,38.03
2023-01-08T17:20:12.928Z,39.17
2023-01-08T17:23:01.746Z,37.15
2023-01-08T17:25:48.925Z,43.78
2023-01-08T17:28:36.529Z,42.75
2023-01-08T17:31:24.420Z,42.53
2023-01-08T17:34:14.591Z,40.20
2023-01-08T17:37:01.991Z,43.25
2023-01-08T17:39:50.873Z,44.20
2023-01-08T17:42:39.320Z,40.70
2023-01-08T17:45:26.746Z,35.90
2023-01-08T17:48:13.957Z,42.55
2023-01-08T17:51:01.615Z,41.35
2023-01-08T17:53:49.052Z,41.10
2023-01-08T17:56:37.866Z,41.58
2023-01-08T17:59:25.135Z,43.17
2023-01-08T18:02:15.839Z,43.63
2023-01-08T18:05:03.288Z,41.33
2023-01-08T18:07:50.494Z,41.65
2023-01-08T18:10:38.737Z,46.47
2023-01-08T18:13:27.370Z,42.67
2023-01-08T18:16:15.617Z,41.70
2023-01-08T18:19:03.051Z,48.67
2023-01-08T18:21:50.161Z,48.92
2023-01-08T18:24:37.470Z,45.72
2023-01-08T18:27:24.878Z,47.95
2023-01-08T18:30:14.591Z,48.20
2023-01-08T18:33:01.849Z,43.05
2023-01-08T18:35:49.038Z,44.60
2023-01-08T18:38:38.094Z,35.05
2023-01-08T18:41:43.251Z,34.08
2023-01-08T18:44:30.675Z,40.78
2023-01-08T18:47:20.561Z,41.40
2023-01-08T18:50:08.780Z,35.45
2023-01-08T18:52:57.508Z,38.20
2023-01-08T18:55:44.776Z,39.63
2023-01-08T18:58:31.996Z,35.60
2023-01-08T19:01:19.358Z,37.92
2023-01-08T19:04:08.124Z,38.65
2023-01-08T19:06:55.353Z,41.90
2023-01-08T19:09:43.073Z,45.30
2023-01-08T19:12:32.344Z,38.83
2023-01-08T19:15:20.206Z,49.28
2023-01-08T19:18:08.926Z,54.25
2023-01-08T19:21:00.021Z,61.40
2023-01-08T19:23:47.513Z,47.22
2023-01-08T19:26:34.830Z,37.47
2023-01-08T19:29:22.122Z,37.83
2023-01-08T19:32:09.457Z,45.95
2023-01-08T19:34:56.828Z,53.60
2023-01-08T19:37:45.554Z,42.83
2023-01-08T19:40:32.753Z,41.83
2023-01-08T19:43:37.371Z,37.45
2023-01-08T19:46:25.070Z,41.55
2023-01-08T19:49:12.166Z,36.35
2023-01-08T19:51:59.346Z,33.25
2023-01-08T19:54:47.763Z,33.20
2023-01-08T19:57:35.218Z,33.00
2023-01-08T20:00:23.694Z,36.35
2023-01-08T20:03:11.325Z,40.70
2023-01-08T20:05:58.711Z,39.70
2023-01-08T20:08:46.401Z,45.78
2023-01-08T20:11:35.010Z,49.65
2023-01-08T20:14:22.175Z,49.75
2023-01-08T20:17:10.092Z,44.60
2023-01-08T20:19:57.551Z,54.05
2023-01-08T20:22:45.128Z,53.13
2023-01-08T20:25:33.674Z,54.03
2023-01-08T20:28:22.018Z,54.60
2023-01-08T20:31:10.693Z,50.45
2023-01-08T20:33:58.008Z,52.15
2023-01-08T20:36:46.406Z,44.65
2023-01-08T20:39:33.496Z,45.03
2023-01-08T20:42:33.064Z,54.78
2023-01-08T20:45:22.547Z,66.95
2023-01-08T20:48:09.972Z,55.17
2023-01-08T20:50:58.140Z,77.40
2023-01-08T20:53:45.521Z,75.18
2023-01-08T20:56:33.272Z,63.78
2023-01-08T20:59:20.657Z,65.30
2023-01-08T21:02:10.995Z,59.83
2023-01-08T21:04:58.168Z,71.55
2023-01-08T21:07:45.624Z,69.05
2023-01-08T21:10:33.491Z,68.53
2023-01-08T21:13:20.674Z,73.30
2023-01-08T21:16:10.812Z,62.75
2023-01-08T21:19:00.235Z,70.53
2023-01-08T21:21:47.645Z,69.13
2023-01-08T21:24:34.888Z,56.63
2023-01-08T21:27:22.159Z,55.58
2023-01-08T21:30:11.090Z,69.70
2023-01-08T21:32:58.149Z,68.88
2023-01-08T21:35:47.156Z,77.10
2023-01-08T21:38:35.391Z,66.25
2023-01-08T21:41:42.064Z,79.03
2023-01-08T21:44:47.365Z,80.28
2023-01-08T21:47:34.478Z,90.95
2023-01-08T21:50:22.540Z,96.72
2023-01-08T21:53:29.039Z,100.47
2023-01-08T21:56:16.569Z,85.35
2023-01-08T21:59:03.965Z,88.78
2023-01-08T22:01:51.629Z,84.35
2023-01-08T22:04:39.066Z,85.20
2023-01-08T22:07:26.947Z,98.13
2023-01-08T22:10:15.938Z,103.25
2023-01-08T22:13:03.314Z,104.28
2023-01-08T22:15:50.897Z,90.55
2023-01-08T22:18:38.626Z,90.95
2023-01-08T22:21:26.145Z,72.63
2023-01-08T22:24:13.859Z,77.97
2023-01-08T22:27:02.725Z,77.10
2023-01-08T22:29:50.369Z,67.82
2023-01-08T22:32:37.541Z,71.32
2023-01-08T22:35:24.895Z,65.68
2023-01-08T22:38:12.307Z,66.93
2023-01-08T22:40:59.822Z,65.03
2023-01-08T22:43:48.624Z,68.35
2023-01-08T22:46:36.045Z,66.68
2023-01-08T22:49:23.169Z,71.18
2023-01-08T22:52:10.986Z,68.15
2023-01-08T22:54:59.340Z,74.82
2023-01-08T22:57:46.652Z,75.90
2023-01-08T23:00:35.439Z,72.63
2023-01-08T23:03:22.894Z,79.72
2023-01-08T23:06:11.897Z,78.93
2023-01-08T23:08:59.994Z,70.38
2023-01-08T23:11:47.433Z,75.30
2023-01-08T23:14:34.881Z,76.50
2023-01-08T23:17:23.409Z,71.50
2023-01-08T23:20:11.939Z,81.85
2023-01-08T23:22:59.551Z,83.07
2023-01-08T23:25:47.178Z,79.38
2023-01-08T23:28:34.482Z,67.13
2023-01-08T23:31:24.861Z,70.32
2023-01-08T23:34:13.547Z,73.50
2023-01-08T23:37:00.784Z,73.07
2023-01-08T23:39:47.785Z,72.82
2023-01-08T23:42:35.129Z,66.20
2023-01-08T23:45:22.552Z,67.78
2023-01-08T23:48:10.423Z,77.40
2023-01-08T23:50:58.975Z,68.90
2023-01-08T23:53:46.164Z,84.50
2023-01-08T23:56:33.492Z,63.20
2023-01-08T23:59:20.738Z,65.63
